Time;durP1;ratioP1;P1;durP2;ratioP2;P2;SDS_P1;SDS_P2;PMS_P1;PMS_P2;Temp;Humidity;BMP_temperature;BMP_pressure;BME280_temperature;BME280_humidity;BME280_pressure;Samples;Min_cycle;Max_cycle;Signal;HPM_P1;HPM_P2
2022/01/22 00:01:52;;;;;;;5.22;4.22;;;4.70;99.90;;;;;;4941550;29;20126;-56
2022/01/22 00:04:19;;;;;;;4.65;3.70;;;4.70;99.90;;;;;;4941766;28;20059;-58
2022/01/22 00:06:46;;;;;;;5.28;4.13;;;4.60;99.90;;;;;;4941730;28;20205;-59
2022/01/22 00:09:38;;;;;;;4.47;3.63;;;4.60;99.90;;;;;;4942353;28;20047;-58
2022/01/22 00:12:07;;;;;;;6.97;4.05;;;4.50;99.90;;;;;;4943008;28;20082;-59
2022/01/22 00:14:34;;;;;;;4.97;3.97;;;4.50;99.90;;;;;;4943673;28;20101;-58
2022/01/22 00:17:01;;;;;;;6.60;4.10;;;4.40;99.90;;;;;;4943669;29;20093;-58
2022/01/22 00:19:28;;;;;;;5.72;4.13;;;4.40;99.90;;;;;;4942688;28;20558;-58
2022/01/22 00:21:55;;;;;;;5.68;3.80;;;4.40;99.90;;;;;;4941193;28;20142;-58
2022/01/22 00:24:22;;;;;;;4.50;3.65;;;4.30;99.90;;;;;;4942402;28;20131;-58
2022/01/22 00:26:49;;;;;;;5.25;3.50;;;4.30;99.90;;;;;;4943765;29;20470;-59
2022/01/22 00:29:16;;;;;;;5.38;3.83;;;4.30;99.90;;;;;;4942646;29;20126;-58
2022/01/22 00:31:43;;;;;;;4.70;3.75;;;4.20;99.90;;;;;;4943187;28;20079;-58
2022/01/22 00:34:10;;;;;;;5.45;4.20;;;4.20;99.90;;;;;;4942937;28;20149;-59
2022/01/22 00:36:37;;;;;;;4.03;3.10;;;4.10;99.90;;;;;;4943059;28;20397;-58
2022/01/22 00:39:04;;;;;;;6.38;4.40;;;4.10;99.90;;;;;;4941992;28;20082;-58
2022/01/22 00:41:31;;;;;;;6.45;4.13;;;4.10;99.90;;;;;;4943223;28;20082;-58
2022/01/22 00:43:58;;;;;;;5.15;3.83;;;4.00;99.90;;;;;;4942774;28;20554;-58
2022/01/22 00:46:25;;;;;;;6.50;4.38;;;4.00;99.90;;;;;;4943326;29;20055;-58
2022/01/22 00:48:51;;;;;;;5.93;4.07;;;4.00;99.90;;;;;;4942575;28;20146;-58
2022/01/22 00:51:18;;;;;;;4.78;3.63;;;4.00;99.90;;;;;;4941527;28;20136;-58
2022/01/22 00:53:45;;;;;;;6.80;3.90;;;4.00;99.90;;;;;;4942064;28;20139;-59
2022/01/22 00:56:13;;;;;;;5.93;4.53;;;3.90;99.90;;;;;;4932192;28;20083;-59
2022/01/22 00:58:40;;;;;;;5.93;4.05;;;3.90;99.90;;;;;;4942902;28;20110;-59
2022/01/22 01:01:06;;;;;;;4.40;3.67;;;3.90;99.90;;;;;;4942089;28;20134;-57
2022/01/22 01:03:34;;;;;;;4.60;3.50;;;3.90;99.90;;;;;;4942770;28;20391;-59
2022/01/22 01:06:02;;;;;;;5.60;4.28;;;3.80;99.90;;;;;;4941843;28;20250;-59
2022/01/22 01:08:32;;;;;;;5.63;4.07;;;3.80;99.90;;;;;;4942588;28;20062;-59
2022/01/22 01:10:59;;;;;;;4.65;3.55;;;3.80;99.90;;;;;;4940694;28;20233;-59
2022/01/22 01:13:28;;;;;;;4.32;3.67;;;3.80;99.90;;;;;;4941629;28;20434;-59
2022/01/22 01:16:00;;;;;;;4.68;3.60;;;3.70;99.90;;;;;;4941661;28;20075;-59
2022/01/22 01:34:43;;;;;;;4.45;3.65;;;3.50;99.90;;;;;;4941455;28;20065;-58
2022/01/22 01:37:14;;;;;;;5.03;3.70;;;3.50;99.90;;;;;;4941810;28;20159;-59
2022/01/22 01:39:42;;;;;;;5.47;3.80;;;3.50;99.90;;;;;;4940915;28;20142;-59
2022/01/22 01:42:14;;;;;;;5.60;4.15;;;3.40;99.90;;;;;;4942256;28;20846;-59
2022/01/22 01:44:44;;;;;;;5.75;3.67;;;3.40;99.90;;;;;;4940489;28;20150;-59
2022/01/22 01:47:14;;;;;;;5.07;3.63;;;3.40;99.90;;;;;;4940025;28;20145;-58
2022/01/22 01:49:41;;;;;;;6.20;3.70;;;3.40;99.90;;;;;;4942620;28;20331;-59
2022/01/22 01:52:13;;;;;;;5.13;3.83;;;3.40;99.90;;;;;;4941909;28;20086;-58
2022/01/22 01:55:02;;;;;;;5.00;3.53;;;3.40;99.90;;;;;;4940887;28;20170;-59
2022/01/22 01:57:47;;;;;;;4.55;3.13;;;3.30;99.90;;;;;;4942511;28;20126;-59
2022/01/22 02:00:18;;;;;;;5.43;3.30;;;3.30;99.90;;;;;;4941088;28;20699;-59
2022/01/22 02:02:45;;;;;;;4.95;3.42;;;3.30;99.90;;;;;;4944230;28;20500;-59
2022/01/22 02:05:13;;;;;;;4.43;3.33;;;3.30;99.90;;;;;;4945360;28;20070;-60
2022/01/22 02:07:41;;;;;;;5.28;3.95;;;3.30;99.90;;;;;;4943954;29;20118;-59
2022/01/22 02:10:11;;;;;;;5.25;3.80;;;3.20;99.90;;;;;;4945606;28;20099;-59
2022/01/22 02:23:40;;;;;;;6.03;4.15;;;3.20;99.90;;;;;;4945762;28;20214;-60
2022/01/22 02:26:08;;;;;;;6.95;4.55;;;3.20;99.90;;;;;;4945297;28;20083;-60
2022/01/22 02:28:35;;;;;;;4.68;3.67;;;3.10;99.90;;;;;;4945444;28;20051;-60
2022/01/22 02:36:31;;;;;;;6.43;3.65;;;3.10;99.90;;;;;;4946640;28;20130;-59
2022/01/22 02:41:26;;;;;;;5.68;4.28;;;3.10;99.90;;;;;;4947616;28;20126;-58
2022/01/22 02:43:54;;;;;;;4.38;3.65;;;3.00;99.90;;;;;;4947359;28;20130;-57
2022/01/22 02:46:24;;;;;;;5.35;4.25;;;3.00;99.90;;;;;;4946851;28;20047;-59
2022/01/22 02:48:51;;;;;;;4.63;3.78;;;3.00;99.90;;;;;;4947254;28;20605;-59
2022/01/22 02:51:18;;;;;;;4.38;3.50;;;3.10;99.90;;;;;;4946602;28;20086;-59
2022/01/22 02:53:48;;;;;;;4.07;3.13;;;3.00;99.90;;;;;;4946666;28;20130;-59
2022/01/22 02:56:16;;;;;;;3.85;3.10;;;3.00;99.90;;;;;;4947109;28;20138;-59
2022/01/22 02:58:43;;;;;;;4.47;3.25;;;3.00;99.90;;;;;;4946048;28;20448;-60
2022/01/22 03:01:09;;;;;;;4.68;4.20;;;2.90;99.90;;;;;;4947222;28;20126;-59
2022/01/22 03:03:39;;;;;;;4.40;3.40;;;2.90;99.90;;;;;;4946979;28;20122;-59
2022/01/22 03:06:06;;;;;;;5.43;3.60;;;2.90;99.90;;;;;;4945542;28;20134;-59
2022/01/22 03:08:33;;;;;;;4.47;3.25;;;2.90;99.90;;;;;;4946826;29;20673;-60
2022/01/22 03:11:04;;;;;;;4.72;3.33;;;2.90;99.90;;;;;;4946678;28;20074;-59
2022/01/22 03:14:11;;;;;;;4.93;3.15;;;2.90;99.90;;;;;;4945646;28;20229;-60
2022/01/22 03:18:58;;;;;;;3.72;3.13;;;2.90;99.90;;;;;;4945579;29;20487;-60
2022/01/22 03:21:34;;;;;;;4.07;3.05;;;2.80;99.90;;;;;;4945356;28;20219;-59
2022/01/22 03:29:36;;;;;;;5.03;3.67;;;2.80;99.90;;;;;;4945602;29;20565;-59
2022/01/22 03:32:03;;;;;;;4.20;3.47;;;2.80;99.90;;;;;;4945813;28;20134;-59
2022/01/22 03:34:36;;;;;;;3.80;3.03;;;2.70;99.90;;;;;;4945137;28;20086;-59
2022/01/22 03:37:03;;;;;;;4.82;3.33;;;2.80;99.90;;;;;;4945216;28;20646;-59
2022/01/22 03:39:30;;;;;;;5.03;3.17;;;2.70;99.90;;;;;;4945497;28;20130;-60
2022/01/22 03:41:57;;;;;;;3.70;2.97;;;2.70;99.90;;;;;;4945384;28;20130;-59
2022/01/22 03:44:24;;;;;;;3.50;2.85;;;2.70;99.90;;;;;;4945960;28;20149;-59
2022/01/22 03:46:50;;;;;;;3.55;3.10;;;2.70;99.90;;;;;;4945542;28;20161;-59
2022/01/22 03:49:17;;;;;;;4.78;3.30;;;2.70;99.90;;;;;;4945609;28;20086;-59
2022/01/22 03:51:44;;;;;;;3.05;2.45;;;2.70;99.90;;;;;;4945038;29;20110;-59
2022/01/22 03:54:11;;;;;;;3.58;2.85;;;2.60;99.90;;;;;;4958904;28;20493;-60
2022/01/22 03:56:40;;;;;;;3.50;3.00;;;2.60;99.90;;;;;;4945490;28;20177;-59
2022/01/22 03:59:07;;;;;;;4.00;3.20;;;2.60;99.90;;;;;;4945619;28;20098;-59
2022/01/22 04:02:14;;;;;;;4.18;3.50;;;2.70;99.90;;;;;;4944840;28;20134;-59
2022/01/22 04:04:49;;;;;;;4.15;2.90;;;2.70;99.90;;;;;;4944464;28;20126;-59
2022/01/22 04:07:43;;;;;;;3.28;2.80;;;2.80;99.90;;;;;;4944975;28;20171;-59
2022/01/22 04:10:05;;;;;;;3.85;2.67;;;2.80;99.90;;;;;;4945109;28;20571;-59
2022/01/22 04:12:45;;;;;;;4.72;3.22;;;2.90;99.90;;;;;;4945359;28;20090;-59
2022/01/22 04:15:14;;;;;;;3.85;3.13;;;2.90;99.90;;;;;;4944480;28;20147;-59
2022/01/22 04:25:51;;;;;;;4.30;3.00;;;3.20;99.90;;;;;;4938236;28;20097;-60
2022/01/22 04:28:18;;;;;;;3.47;3.17;;;3.20;99.90;;;;;;4945754;28;20561;-59
2022/01/22 04:30:46;;;;;;;4.45;3.63;;;3.30;99.90;;;;;;4943312;29;20094;-59
2022/01/22 04:33:12;;;;;;;3.80;3.35;;;3.30;99.90;;;;;;4945233;28;20066;-59
2022/01/22 04:35:39;;;;;;;5.28;3.70;;;3.40;99.90;;;;;;4943875;28;20146;-59
2022/01/22 04:38:06;;;;;;;4.43;3.63;;;3.40;99.90;;;;;;4944768;28;20106;-59
2022/01/22 04:40:33;;;;;;;3.92;3.53;;;3.50;99.90;;;;;;4945346;29;20105;-59
2022/01/22 04:43:02;;;;;;;4.55;3.78;;;3.60;99.90;;;;;;4945654;28;20119;-59
2022/01/22 04:48:29;;;;;;;4.35;2.72;;;3.70;99.90;;;;;;4944961;28;20558;-59
2022/01/22 04:56:27;;;;;;;4.50;3.50;;;3.80;99.90;;;;;;4944635;28;20271;-59
2022/01/22 04:58:54;;;;;;;3.45;2.85;;;3.90;99.90;;;;;;4944881;28;20146;-59
2022/01/22 05:01:20;;;;;;;3.10;2.63;;;3.90;99.90;;;;;;4944490;28;20094;-60
2022/01/22 05:03:47;;;;;;;3.63;2.90;;;4.00;99.90;;;;;;4944110;28;20423;-60
2022/01/22 05:06:14;;;;;;;2.97;2.67;;;4.00;99.90;;;;;;4943745;28;20142;-60
2022/01/22 05:08:41;;;;;;;3.53;2.92;;;4.00;99.90;;;;;;4946272;28;20459;-58
2022/01/22 05:11:08;;;;;;;3.35;3.05;;;4.00;99.90;;;;;;4944686;28;20130;-59
2022/01/22 05:13:35;;;;;;;4.18;3.33;;;4.00;99.90;;;;;;4943509;28;20557;-60
2022/01/22 05:16:02;;;;;;;3.40;2.70;;;4.10;99.90;;;;;;4944120;28;20170;-60
2022/01/22 05:18:29;;;;;;;4.50;3.47;;;4.10;99.90;;;;;;4944911;28;20089;-60
2022/01/22 05:21:07;;;;;;;3.90;3.50;;;4.10;99.90;;;;;;4943923;28;20126;-59
2022/01/22 05:23:35;;;;;;;4.05;3.65;;;4.10;99.90;;;;;;4943551;28;20142;-60
2022/01/22 05:26:04;;;;;;;4.45;3.72;;;4.20;99.90;;;;;;4942991;28;20134;-60
2022/01/22 05:31:33;;;;;;;4.00;3.58;;;4.20;99.90;;;;;;4944796;28;20413;-59
2022/01/22 05:39:24;;;;;;;3.78;3.30;;;4.30;99.90;;;;;;4947903;28;20438;-57
2022/01/22 05:41:51;;;;;;;4.10;3.40;;;4.30;99.90;;;;;;4946945;28;20372;-60
2022/01/22 05:44:18;;;;;;;3.50;3.20;;;4.30;99.90;;;;;;4948184;28;20086;-60
2022/01/22 05:46:45;;;;;;;3.55;3.25;;;4.40;99.90;;;;;;4948069;28;20135;-59
2022/01/22 05:49:12;;;;;;;4.00;3.15;;;4.40;99.90;;;;;;4946371;29;20062;-59
2022/01/22 05:51:40;;;;;;;3.33;3.00;;;4.40;99.90;;;;;;4947901;28;20470;-60
2022/01/22 05:59:39;;;;;;;3.50;3.20;;;4.50;99.90;;;;;;4938522;29;20172;-60
2022/01/22 06:02:07;;;;;;;4.22;3.00;;;4.50;99.90;;;;;;4947182;28;20472;-59
2022/01/22 06:04:34;;;;;;;3.53;2.95;;;4.50;99.90;;;;;;4944472;28;20099;-59
2022/01/22 06:07:04;;;;;;;4.25;2.92;;;4.50;99.90;;;;;;4943711;28;20086;-59
2022/01/22 06:09:32;;;;;;;3.78;3.38;;;4.50;99.90;;;;;;4945112;28;20133;-59
2022/01/22 06:14:35;;;;;;;3.42;3.13;;;4.60;99.90;;;;;;4943693;28;20522;-57
2022/01/22 06:17:02;;;;;;;4.28;3.38;;;4.60;99.90;;;;;;4946112;28;20157;-59
2022/01/22 06:19:29;;;;;;;4.20;3.53;;;4.60;99.90;;;;;;4946022;29;20133;-59
2022/01/22 06:21:56;;;;;;;4.13;3.33;;;4.60;99.90;;;;;;4945017;28;20078;-59
2022/01/22 06:24:22;;;;;;;4.72;4.10;;;4.60;99.90;;;;;;4943950;28;20130;-60
2022/01/22 06:26:49;;;;;;;3.75;3.35;;;4.60;99.90;;;;;;4945355;28;20100;-59
2022/01/22 06:29:16;;;;;;;3.30;2.92;;;4.70;99.90;;;;;;4945696;28;20593;-60
2022/01/22 06:31:43;;;;;;;4.13;3.72;;;4.70;99.90;;;;;;4944551;28;20134;-60
2022/01/22 06:34:10;;;;;;;3.53;3.05;;;4.60;99.90;;;;;;4959509;28;20137;-59
2022/01/22 06:36:36;;;;;;;4.18;3.78;;;4.60;99.90;;;;;;4944704;28;20558;-59
2022/01/22 06:39:17;;;;;;;4.32;3.92;;;4.60;99.90;;;;;;4943914;28;20051;-58
2022/01/22 06:41:44;;;;;;;4.20;3.33;;;4.60;99.90;;;;;;4945532;28;20154;-60
2022/01/22 06:44:19;;;;;;;4.00;3.60;;;4.70;99.90;;;;;;4946641;28;20253;-60
2022/01/22 06:46:48;;;;;;;4.35;3.95;;;4.70;99.90;;;;;;4944696;28;20143;-59
2022/01/22 06:49:14;;;;;;;3.75;3.45;;;4.70;99.90;;;;;;4943471;28;20174;-59
2022/01/22 06:51:41;;;;;;;4.75;4.15;;;4.80;99.90;;;;;;4942616;28;20123;-60
2022/01/22 06:54:10;;;;;;;4.07;3.67;;;4.80;99.90;;;;;;4944007;28;20087;-57
2022/01/22 06:56:37;;;;;;;3.78;3.38;;;4.80;99.90;;;;;;4944969;28;20152;-59
2022/01/22 06:59:06;;;;;;;5.10;4.60;;;4.80;99.90;;;;;;4943682;28;20769;-57
2022/01/22 07:01:32;;;;;;;4.65;3.75;;;4.80;99.90;;;;;;4944068;28;20121;-56
2022/01/22 07:03:59;;;;;;;4.25;3.85;;;4.80;99.90;;;;;;4944354;28;20909;-58
2022/01/22 07:06:26;;;;;;;4.95;4.45;;;4.80;99.90;;;;;;4934811;28;20079;-56
2022/01/22 07:08:53;;;;;;;5.40;4.90;;;4.80;99.90;;;;;;4939037;28;20127;-58
2022/01/22 07:11:19;;;;;;;5.40;4.90;;;4.80;99.90;;;;;;4944865;28;20110;-58
2022/01/22 07:13:47;;;;;;;6.18;5.38;;;4.80;99.90;;;;;;4944745;28;20082;-57
2022/01/22 07:16:14;;;;;;;6.10;5.40;;;4.80;99.90;;;;;;4944848;28;20062;-56
2022/01/22 07:18:41;;;;;;;5.28;4.78;;;4.80;99.90;;;;;;4945064;28;20061;-58
2022/01/22 07:21:14;;;;;;;5.22;4.60;;;4.90;99.90;;;;;;4943665;28;20600;-58
2022/01/22 07:26:14;;;;;;;4.47;4.07;;;5.00;99.90;;;;;;4943958;28;20134;-57
2022/01/22 07:28:41;;;;;;;5.28;4.63;;;5.00;99.90;;;;;;4959283;28;20175;-57
2022/01/22 07:31:08;;;;;;;5.30;4.80;;;5.00;99.90;;;;;;4943958;28;20146;-58
2022/01/22 07:33:35;;;;;;;4.57;4.18;;;5.00;99.90;;;;;;4941873;28;20047;-58
2022/01/22 07:36:04;;;;;;;4.80;4.30;;;5.00;99.90;;;;;;4946833;28;20145;-57
2022/01/22 07:38:33;;;;;;;5.80;5.30;;;5.00;99.90;;;;;;4947806;28;20487;-58
2022/01/22 07:41:01;;;;;;;5.90;5.30;;;5.00;99.90;;;;;;4946490;28;20055;-58
2022/01/22 07:43:28;;;;;;;8.18;6.25;;;5.00;99.90;;;;;;4948260;28;20070;-58
2022/01/22 07:45:55;;;;;;;6.28;5.68;;;5.00;99.90;;;;;;4943912;28;20129;-57
2022/01/22 07:48:22;;;;;;;5.93;5.32;;;5.00;99.90;;;;;;4958902;28;20451;-57
2022/01/22 07:50:48;;;;;;;6.03;5.43;;;5.00;99.90;;;;;;4942715;28;20079;-57
2022/01/22 07:53:15;;;;;;;5.30;4.80;;;5.10;99.90;;;;;;4943666;28;20082;-57
2022/01/22 07:55:42;;;;;;;6.07;5.47;;;5.10;99.90;;;;;;4942745;28;20154;-57
2022/01/22 07:58:10;;;;;;;4.60;4.20;;;5.10;99.90;;;;;;4943567;28;20138;-58
2022/01/22 08:00:37;;;;;;;5.55;5.05;;;5.10;99.90;;;;;;4942808;28;20150;-57
2022/01/22 08:03:04;;;;;;;6.03;5.43;;;5.10;99.90;;;;;;4944252;28;20200;-57
2022/01/22 08:05:31;;;;;;;5.68;5.05;;;5.20;99.90;;;;;;4942434;28;20058;-57
2022/01/22 08:07:57;;;;;;;6.20;5.60;;;5.10;99.90;;;;;;4943250;29;20127;-57
2022/01/22 08:10:24;;;;;;;5.60;5.10;;;5.20;99.90;;;;;;4942292;28;20526;-58
2022/01/22 08:12:51;;;;;;;6.00;5.40;;;5.20;99.90;;;;;;4940956;28;20071;-58
2022/01/22 08:15:18;;;;;;;6.40;5.80;;;5.30;99.90;;;;;;4939680;28;20090;-58
2022/01/22 08:17:45;;;;;;;6.43;5.82;;;5.30;99.90;;;;;;4940460;29;20143;-59
2022/01/22 08:20:13;;;;;;;5.95;5.38;;;5.30;99.90;;;;;;4939701;28;20138;-59
2022/01/22 08:22:41;;;;;;;5.78;5.18;;;5.30;99.90;;;;;;4939683;28;20491;-58
2022/01/22 08:25:09;;;;;;;5.65;5.15;;;5.40;99.90;;;;;;4938706;28;20483;-58
2022/01/22 08:30:34;;;;;;;5.70;5.20;;;5.40;99.90;;;;;;4916780;28;20043;-58
2022/01/22 08:35:52;;;;;;;5.43;4.93;;;5.50;99.90;;;;;;4939484;28;20585;-59
2022/01/22 08:38:24;;;;;;;5.60;5.10;;;5.60;99.90;;;;;;4938700;28;20115;-59
2022/01/22 08:40:51;;;;;;;4.93;4.47;;;5.60;99.90;;;;;;4935463;28;20051;-59
2022/01/22 08:43:18;;;;;;;5.90;5.03;;;5.60;99.90;;;;;;4939155;28;20142;-59
2022/01/22 08:45:49;;;;;;;5.68;5.18;;;5.60;99.90;;;;;;4938462;28;20741;-59
2022/01/22 08:48:17;;;;;;;5.90;4.95;;;5.70;99.90;;;;;;4940021;28;20308;-59
2022/01/22 08:50:44;;;;;;;5.15;4.65;;;5.70;99.90;;;;;;4940812;28;20137;-59
2022/01/22 08:53:32;;;;;;;6.38;5.13;;;5.70;99.90;;;;;;4938587;28;20172;-59
2022/01/22 08:56:00;;;;;;;6.45;5.85;;;5.70;99.90;;;;;;4938814;28;20129;-59
2022/01/22 08:58:27;;;;;;;7.30;6.60;;;5.70;99.90;;;;;;4938137;28;20086;-59
2022/01/22 09:00:54;;;;;;;7.53;6.82;;;5.80;99.90;;;;;;4939159;28;20090;-59
2022/01/22 09:03:22;;;;;;;7.00;6.38;;;5.80;99.90;;;;;;4939482;28;20047;-59
2022/01/22 09:05:49;;;;;;;7.22;6.47;;;5.80;99.90;;;;;;4937593;28;20316;-59
2022/01/22 09:08:16;;;;;;;6.32;5.63;;;5.90;99.90;;;;;;4939155;28;20637;-59
2022/01/22 09:10:43;;;;;;;7.28;6.57;;;5.90;99.90;;;;;;4940792;28;20051;-59
2022/01/22 09:13:10;;;;;;;6.72;6.13;;;6.00;99.90;;;;;;4963737;28;20550;-59
2022/01/22 09:15:37;;;;;;;6.78;6.18;;;6.00;99.90;;;;;;4946527;28;20465;-59
2022/01/22 09:18:05;;;;;;;7.43;6.72;;;6.00;99.90;;;;;;4945284;28;20126;-59
2022/01/22 09:23:05;;;;;;;4.28;3.88;;;6.10;99.90;;;;;;4946461;28;20083;-59
2022/01/22 09:25:33;;;;;;;6.85;6.25;;;6.10;99.90;;;;;;4945535;28;20058;-58
2022/01/22 09:27:59;;;;;;;6.45;5.68;;;6.10;99.90;;;;;;4943055;28;20048;-59
2022/01/22 09:30:26;;;;;;;7.63;6.45;;;6.10;99.90;;;;;;4945938;28;20158;-59
2022/01/22 09:32:53;;;;;;;7.13;6.43;;;6.10;99.90;;;;;;4946483;28;20066;-59
2022/01/22 09:35:20;;;;;;;6.90;6.20;;;6.20;99.90;;;;;;4944878;28;20142;-64
2022/01/22 09:37:47;;;;;;;7.43;6.75;;;6.20;99.90;;;;;;4945843;28;20153;-59
2022/01/22 09:40:13;;;;;;;7.05;6.45;;;6.20;99.90;;;;;;4959139;28;20862;-60
2022/01/22 09:42:40;;;;;;;8.10;7.40;;;6.20;99.90;;;;;;4945510;28;20043;-59
2022/01/22 09:45:09;;;;;;;7.80;7.00;;;6.30;99.90;;;;;;4941649;28;20070;-60
2022/01/22 09:47:36;;;;;;;9.68;8.68;;;6.30;99.90;;;;;;4945900;28;20098;-59
2022/01/22 09:50:03;;;;;;;8.57;7.35;;;6.30;99.90;;;;;;4945894;28;20051;-59
2022/01/22 09:52:30;;;;;;;7.82;7.07;;;6.30;99.90;;;;;;4959317;28;20564;-59
2022/01/22 09:54:57;;;;;;;7.03;6.32;;;6.30;99.90;;;;;;4945938;28;20464;-59
2022/01/22 09:57:26;;;;;;;7.18;6.57;;;6.40;99.90;;;;;;4962982;28;20101;-60
2022/01/22 09:59:52;;;;;;;9.02;8.13;;;6.40;99.90;;;;;;4948579;28;20141;-60
2022/01/22 10:02:20;;;;;;;8.95;8.15;;;6.40;99.90;;;;;;4948996;28;20516;-59
2022/01/22 10:04:52;;;;;;;8.27;7.47;;;6.30;99.90;;;;;;4947024;28;20047;-59
2022/01/22 10:07:23;;;;;;;9.25;8.35;;;6.30;99.90;;;;;;4941750;28;20130;-61
2022/01/22 10:10:05;;;;;;;8.88;8.07;;;6.30;99.90;;;;;;4947910;28;20055;-58
2022/01/22 10:12:46;;;;;;;7.53;6.78;;;6.40;99.90;;;;;;4948334;28;20051;-59
2022/01/22 10:15:19;;;;;;;9.25;8.45;;;6.40;99.90;;;;;;4946859;28;20518;-58
2022/01/22 10:17:46;;;;;;;8.95;8.15;;;6.30;99.90;;;;;;4948828;28;20101;-59
2022/01/22 10:20:22;;;;;;;9.15;8.35;;;6.30;99.90;;;;;;4960573;28;20363;-60
2022/01/22 10:22:49;;;;;;;9.55;8.75;;;6.30;99.90;;;;;;4944551;28;20143;-59
2022/01/22 10:25:47;;;;;;;9.80;8.90;;;6.40;99.90;;;;;;4943961;28;20133;-58
2022/01/22 10:28:20;;;;;;;9.30;8.43;;;6.40;99.90;;;;;;4942906;29;20420;-59
2022/01/22 10:30:58;;;;;;;9.13;8.32;;;6.40;99.90;;;;;;4944580;28;20495;-59
2022/01/22 10:33:35;;;;;;;8.90;8.10;;;6.40;99.90;;;;;;4943729;28;20147;-59
2022/01/22 10:36:12;;;;;;;10.38;9.38;;;6.50;99.90;;;;;;4936509;28;20055;-59
2022/01/22 10:38:44;;;;;;;9.73;8.93;;;6.40;99.90;;;;;;4945030;28;20083;-59
2022/01/22 10:41:15;;;;;;;8.20;7.50;;;6.40;99.90;;;;;;4956265;28;20134;-59
2022/01/22 10:43:53;;;;;;;8.00;7.20;;;6.50;99.90;;;;;;4947418;28;20113;-57
2022/01/22 10:46:43;;;;;;;8.57;7.68;;;6.60;99.90;;;;;;4942711;28;20070;-59
2022/01/22 10:49:23;;;;;;;9.95;9.10;;;6.60;99.90;;;;;;4936001;29;20487;-59
2022/01/22 10:51:56;;;;;;;9.95;9.07;;;6.60;99.90;;;;;;4943127;28;20371;-59
2022/01/22 10:54:27;;;;;;;9.38;8.57;;;6.60;99.90;;;;;;4943514;28;20083;-59
2022/01/22 10:56:54;;;;;;;10.52;9.55;;;6.60;99.90;;;;;;4943867;28;20134;-59
2022/01/22 10:59:21;;;;;;;10.90;9.93;;;6.60;99.90;;;;;;4960269;28;20385;-59
2022/01/22 11:02:01;;;;;;;11.38;10.38;;;6.50;99.90;;;;;;4944561;28;20138;-58
2022/01/22 11:04:40;;;;;;;10.27;9.38;;;6.60;99.90;;;;;;4943440;28;20047;-59
2022/01/22 11:07:08;;;;;;;11.43;10.40;;;6.60;99.90;;;;;;4943353;28;20145;-59
2022/01/22 11:09:50;;;;;;;11.02;10.02;;;6.60;99.90;;;;;;4942653;28;20047;-59
2022/01/22 11:12:17;;;;;;;10.10;9.20;;;6.60;99.90;;;;;;4939302;28;20447;-60
2022/01/22 11:14:44;;;;;;;10.65;9.55;;;6.60;99.90;;;;;;4941107;28;20585;-67
2022/01/22 11:17:11;;;;;;;10.15;9.25;;;6.70;99.90;;;;;;4942363;29;20158;-59
2022/01/22 11:19:39;;;;;;;10.10;9.30;;;6.70;99.90;;;;;;4940883;28;20106;-59
2022/01/22 11:22:16;;;;;;;11.25;10.27;;;6.80;99.90;;;;;;4939893;28;20138;-59
2022/01/22 11:24:44;;;;;;;11.32;10.32;;;6.70;99.90;;;;;;4941193;28;20360;-60
2022/01/22 11:27:15;;;;;;;11.52;10.07;;;6.70;99.90;;;;;;4941944;28;20154;-59
2022/01/22 11:29:54;;;;;;;11.13;10.23;;;6.70;99.90;;;;;;4942094;28;20063;-59
2022/01/22 11:32:25;;;;;;;9.45;8.55;;;6.70;99.90;;;;;;4940455;28;20237;-59
2022/01/22 11:34:55;;;;;;;10.07;9.23;;;6.80;99.90;;;;;;4939009;28;20055;-59
2022/01/22 11:37:29;;;;;;;10.18;9.23;;;6.80;99.90;;;;;;4939837;28;20482;-59
2022/01/22 11:40:13;;;;;;;10.07;9.18;;;6.80;99.90;;;;;;4939749;28;21140;-59
2022/01/22 11:42:55;;;;;;;;;;;6.80;99.90;;;;;;4942499;28;20101;-60
2022/01/22 11:45:35;;;;;;;8.98;8.20;;;6.80;99.90;;;;;;4941583;28;20124;-59
2022/01/22 11:48:25;;;;;;;10.07;9.18;;;6.80;99.90;;;;;;4942207;28;20411;-60
2022/01/22 11:50:56;;;;;;;10.38;9.38;;;6.80;99.90;;;;;;4940111;28;20142;-59
2022/01/22 11:53:33;;;;;;;10.68;9.63;;;6.80;99.90;;;;;;4941716;28;20586;-59
2022/01/22 11:56:09;;;;;;;9.57;8.68;;;6.80;99.90;;;;;;4940954;28;21060;-59
2022/01/22 11:59:04;;;;;;;9.25;8.45;;;6.80;99.90;;;;;;4941384;29;20086;-59
2022/01/22 12:01:45;;;;;;;8.63;7.90;;;6.90;99.90;;;;;;4941041;28;20577;-59
2022/01/22 12:04:15;;;;;;;9.63;8.48;;;6.90;99.90;;;;;;4940482;28;20051;-59
2022/01/22 12:07:03;;;;;;;9.48;8.68;;;7.00;99.90;;;;;;4939410;28;20134;-60
2022/01/22 12:15:27;;;;;;;9.20;8.35;;;7.10;99.90;;;;;;4940244;28;20051;-59
2022/01/22 12:18:12;;;;;;;8.93;8.02;;;7.10;99.90;;;;;;4941504;28;20473;-60
2022/01/22 12:23:15;;;;;;;8.20;7.40;;;7.00;99.90;;;;;;4940882;28;20665;-60
2022/01/22 12:25:42;;;;;;;7.22;6.55;;;7.10;99.90;;;;;;4940234;28;20130;-59
2022/01/22 12:28:42;;;;;;;7.00;6.40;;;7.10;99.90;;;;;;4940831;28;20134;-59
2022/01/22 12:31:18;;;;;;;7.15;6.40;;;7.10;99.90;;;;;;4941103;28;20237;-60
2022/01/22 12:33:48;;;;;;;6.72;6.13;;;7.10;99.90;;;;;;4941148;28;20058;-58
2022/01/22 12:36:25;;;;;;;6.75;6.15;;;7.10;99.90;;;;;;4940000;28;20157;-60
2022/01/22 12:39:11;;;;;;;5.72;5.22;;;7.10;99.90;;;;;;4940312;28;20110;-60
2022/01/22 12:44:36;;;;;;;5.63;5.13;;;7.20;99.90;;;;;;4941035;28;20375;-60
2022/01/22 12:47:10;;;;;;;5.03;4.63;;;7.20;99.90;;;;;;4939819;28;20105;-59
2022/01/22 12:49:37;;;;;;;4.47;4.07;;;7.30;99.90;;;;;;4940305;28;20540;-60
2022/01/22 12:52:06;;;;;;;5.40;4.90;;;7.30;99.90;;;;;;4939963;28;20055;-59
2022/01/22 12:54:40;;;;;;;6.35;5.55;;;7.30;99.90;;;;;;4939281;28;20130;-58
2022/01/22 12:57:18;;;;;;;6.28;5.18;;;7.30;99.90;;;;;;4941240;28;20055;-59
2022/01/22 13:00:02;;;;;;;5.60;5.10;;;7.20;99.90;;;;;;4941218;28;20047;-59
2022/01/22 13:02:37;;;;;;;6.07;5.47;;;7.20;99.90;;;;;;4940645;28;20425;-59
2022/01/22 13:05:06;;;;;;;6.20;5.60;;;7.20;99.90;;;;;;4940468;28;20055;-59
2022/01/22 13:07:45;;;;;;;6.13;5.53;;;7.20;99.90;;;;;;4942441;28;20051;-58
2022/01/22 13:10:12;;;;;;;5.63;5.00;;;7.20;99.90;;;;;;4949715;28;20141;-59
2022/01/22 13:12:43;;;;;;;5.95;5.45;;;7.30;99.90;;;;;;4946921;28;20073;-60
2022/01/22 13:15:11;;;;;;;4.90;4.50;;;7.30;99.90;;;;;;4940945;28;20155;-58
2022/01/22 13:17:38;;;;;;;4.53;4.13;;;7.30;99.90;;;;;;4944229;28;20166;-59
2022/01/22 13:20:06;;;;;;;4.93;4.50;;;7.30;99.90;;;;;;4951319;28;20430;-58
2022/01/22 13:22:36;;;;;;;5.20;4.70;;;7.20;99.90;;;;;;4959993;28;20138;-58
2022/01/22 13:25:04;;;;;;;5.65;5.05;;;7.20;99.90;;;;;;4939155;28;20105;-59
2022/01/22 13:27:32;;;;;;;5.38;4.88;;;7.20;99.90;;;;;;4945562;28;20151;-59
2022/01/22 13:29:59;;;;;;;4.88;4.47;;;7.20;99.90;;;;;;4920213;29;20055;-59
2022/01/22 13:32:44;;;;;;;4.97;4.55;;;7.10;99.90;;;;;;4946420;28;20090;-60
2022/01/22 13:38:26;;;;;;;6.15;5.55;;;7.10;99.90;;;;;;4939808;28;20318;-59
2022/01/22 13:49:18;;;;;;;5.15;4.65;;;7.10;99.90;;;;;;4949172;28;20131;-59
2022/01/22 13:51:45;;;;;;;5.88;5.38;;;7.00;99.90;;;;;;4947285;28;20086;-59
2022/01/22 13:54:13;;;;;;;6.15;5.13;;;6.90;99.90;;;;;;4940136;28;20130;-59
2022/01/22 13:56:48;;;;;;;5.65;4.93;;;7.00;99.90;;;;;;4939878;28;20065;-59
2022/01/22 13:59:29;;;;;;;6.97;6.38;;;7.00;99.90;;;;;;4943926;28;20142;-59
2022/01/22 14:02:51;;;;;;;5.75;5.15;;;6.90;99.90;;;;;;4942409;29;20561;-59
2022/01/22 14:05:26;;;;;;;6.07;5.47;;;7.00;99.90;;;;;;4941525;28;20051;-59
2022/01/22 14:08:05;;;;;;;8.38;7.25;;;7.00;99.90;;;;;;4942549;29;20114;-59
2022/01/22 14:10:33;;;;;;;7.55;6.82;;;7.00;99.90;;;;;;4943341;28;20134;-59
2022/01/22 14:13:06;;;;;;;7.80;7.07;;;6.90;99.90;;;;;;4943998;28;20051;-59
2022/01/22 14:15:42;;;;;;;7.60;6.68;;;6.90;99.90;;;;;;4940912;28;20086;-59
2022/01/22 14:18:20;;;;;;;7.80;7.00;;;6.90;99.90;;;;;;4944143;28;20106;-60
2022/01/22 14:20:55;;;;;;;8.45;7.65;;;6.90;99.90;;;;;;4942700;28;20375;-59
2022/01/22 14:23:25;;;;;;;9.98;8.98;;;6.90;99.90;;;;;;4941934;29;20573;-59
2022/01/22 14:25:55;;;;;;;10.35;9.32;;;6.80;99.90;;;;;;4942475;28;20126;-59
2022/01/22 14:28:24;;;;;;;12.43;10.32;;;6.70;99.90;;;;;;4950176;28;20194;-59
2022/01/22 14:30:50;;;;;;;7.75;7.05;;;6.70;99.90;;;;;;4943503;28;20422;-59
2022/01/22 14:33:18;;;;;;;7.75;7.05;;;6.70;99.90;;;;;;4943569;28;20227;-59
2022/01/22 14:35:57;;;;;;;8.43;7.55;;;6.80;99.90;;;;;;4941917;28;20066;-59
2022/01/22 14:38:46;;;;;;;8.48;7.68;;;6.70;99.90;;;;;;4942786;28;20087;-60
2022/01/22 14:44:26;;;;;;;9.02;8.23;;;6.70;99.90;;;;;;4943017;28;20480;-59
2022/01/22 14:46:57;;;;;;;9.00;8.05;;;6.60;99.90;;;;;;4942586;28;20099;-60
2022/01/22 14:49:32;;;;;;;9.20;8.30;;;6.60;99.90;;;;;;4941937;28;20082;-59
2022/01/22 14:51:59;;;;;;;8.23;7.43;;;6.60;99.90;;;;;;4942013;28;20337;-59
2022/01/22 14:54:27;;;;;;;9.07;8.27;;;6.70;99.90;;;;;;4942783;28;20054;-59
2022/01/22 14:56:58;;;;;;;8.93;8.13;;;6.60;99.90;;;;;;4943920;28;20055;-59
2022/01/22 14:59:25;;;;;;;8.70;7.90;;;6.60;99.90;;;;;;4944070;28;20142;-59
2022/01/22 15:01:52;;;;;;;8.05;7.25;;;6.70;99.90;;;;;;4943436;28;20158;-59
2022/01/22 15:04:19;;;;;;;8.52;7.18;;;6.60;99.90;;;;;;4927382;28;20054;-59
2022/01/22 15:06:58;;;;;;;8.57;7.78;;;6.70;99.90;;;;;;4942693;28;20388;-60